sensor_id;sensor_type;location;lat;lon;timestamp;P1;durP1;ratioP1;P2;durP2;ratioP2
16665;SDS011;8446;50.998;6.250;2023-04-25T00:00:54;7.55;;;3.45;;
16665;SDS011;8446;50.998;6.250;2023-04-25T00:03:21;9.13;;;3.70;;
16665;SDS011;8446;50.998;6.250;2023-04-25T00:05:50;15.07;;;4.35;;
16665;SDS011;8446;50.998;6.250;2023-04-25T00:08:17;21.77;;;4.85;;
16665;SDS011;8446;50.998;6.250;2023-04-25T00:10:46;9.98;;;3.70;;
16665;SDS011;8446;50.998;6.250;2023-04-25T00:13:13;9.43;;;4.45;;
16665;SDS011;8446;50.998;6.250;2023-04-25T00:15:42;17.98;;;4.00;;
16665;SDS011;8446;50.998;6.250;2023-04-25T00:18:09;8.38;;;3.67;;
16665;SDS011;8446;50.998;6.250;2023-04-25T00:20:36;10.07;;;3.90;;
16665;SDS011;8446;50.998;6.250;2023-04-25T00:23:03;11.90;;;3.63;;
16665;SDS011;8446;50.998;6.250;2023-04-25T00:25:30;12.40;;;3.80;;
16665;SDS011;8446;50.998;6.250;2023-04-25T00:27:58;16.77;;;4.45;;
16665;SDS011;8446;50.998;6.250;2023-04-25T00:30:24;11.20;;;4.00;;
16665;SDS011;8446;50.998;6.250;2023-04-25T00:32:51;17.27;;;4.63;;
16665;SDS011;8446;50.998;6.250;2023-04-25T00:35:18;8.68;;;3.63;;
16665;SDS011;8446;50.998;6.250;2023-04-25T00:37:46;12.98;;;3.85;;
16665;SDS011;8446;50.998;6.250;2023-04-25T00:40:12;10.50;;;4.75;;
16665;SDS011;8446;50.998;6.250;2023-04-25T00:42:39;15.32;;;3.88;;
16665;SDS011;8446;50.998;6.250;2023-04-25T00:45:09;11.63;;;4.05;;
16665;SDS011;8446;50.998;6.250;2023-04-25T00:47:39;8.82;;;4.07;;
16665;SDS011;8446;50.998;6.250;2023-04-25T00:50:07;15.90;;;4.35;;
16665;SDS011;8446;50.998;6.250;2023-04-25T00:52:34;10.68;;;4.10;;
16665;SDS011;8446;50.998;6.250;2023-04-25T00:55:01;9.85;;;4.07;;
16665;SDS011;8446;50.998;6.250;2023-04-25T00:57:28;9.35;;;4.18;;
16665;SDS011;8446;50.998;6.250;2023-04-25T00:59:55;6.88;;;4.10;;
16665;SDS011;8446;50.998;6.250;2023-04-25T01:02:24;13.43;;;4.00;;
16665;SDS011;8446;50.998;6.250;2023-04-25T01:04:52;10.75;;;4.00;;
16665;SDS011;8446;50.998;6.250;2023-04-25T01:07:19;15.95;;;5.28;;
16665;SDS011;8446;50.998;6.250;2023-04-25T01:09:46;16.27;;;4.00;;
16665;SDS011;8446;50.998;6.250;2023-04-25T01:12:13;13.38;;;4.55;;
16665;SDS011;8446;50.998;6.250;2023-04-25T01:14:40;9.20;;;3.75;;
16665;SDS011;8446;50.998;6.250;2023-04-25T01:17:07;9.25;;;4.90;;
16665;SDS011;8446;50.998;6.250;2023-04-25T01:19:36;13.35;;;4.10;;
16665;SDS011;8446;50.998;6.250;2023-04-25T01:22:04;7.00;;;3.95;;
16665;SDS011;8446;50.998;6.250;2023-04-25T01:24:32;7.80;;;3.60;;
16665;SDS011;8446;50.998;6.250;2023-04-25T01:26:59;9.18;;;4.68;;
16665;SDS011;8446;50.998;6.250;2023-04-25T01:29:27;6.45;;;3.95;;
16665;SDS011;8446;50.998;6.250;2023-04-25T01:31:54;12.00;;;4.40;;
16665;SDS011;8446;50.998;6.250;2023-04-25T01:34:23;18.33;;;4.90;;
16665;SDS011;8446;50.998;6.250;2023-04-25T01:36:50;11.13;;;5.43;;
16665;SDS011;8446;50.998;6.250;2023-04-25T01:39:19;8.57;;;4.05;;
16665;SDS011;8446;50.998;6.250;2023-04-25T01:41:46;11.70;;;4.10;;
16665;SDS011;8446;50.998;6.250;2023-04-25T01:44:14;8.70;;;4.05;;
16665;SDS011;8446;50.998;6.250;2023-04-25T01:46:41;16.50;;;5.30;;
16665;SDS011;8446;50.998;6.250;2023-04-25T01:49:07;12.95;;;5.22;;
16665;SDS011;8446;50.998;6.250;2023-04-25T01:51:34;10.02;;;4.40;;
16665;SDS011;8446;50.998;6.250;2023-04-25T01:54:01;14.57;;;4.53;;
16665;SDS011;8446;50.998;6.250;2023-04-25T01:56:31;13.95;;;5.03;;
16665;SDS011;8446;50.998;6.250;2023-04-25T01:58:58;15.43;;;5.32;;
16665;SDS011;8446;50.998;6.250;2023-04-25T02:01:25;20.60;;;4.90;;
16665;SDS011;8446;50.998;6.250;2023-04-25T02:03:52;15.63;;;5.20;;
16665;SDS011;8446;50.998;6.250;2023-04-25T02:06:19;16.38;;;4.97;;
16665;SDS011;8446;50.998;6.250;2023-04-25T02:08:46;16.83;;;6.25;;
16665;SDS011;8446;50.998;6.250;2023-04-25T02:11:13;10.10;;;4.47;;
16665;SDS011;8446;50.998;6.250;2023-04-25T02:13:41;19.13;;;6.38;;
16665;SDS011;8446;50.998;6.250;2023-04-25T02:16:08;8.10;;;4.43;;
16665;SDS011;8446;50.998;6.250;2023-04-25T02:18:34;13.65;;;4.18;;
16665;SDS011;8446;50.998;6.250;2023-04-25T02:21:02;17.30;;;4.88;;
16665;SDS011;8446;50.998;6.250;2023-04-25T02:23:29;14.38;;;4.10;;
16665;SDS011;8446;50.998;6.250;2023-04-25T02:25:56;16.25;;;4.40;;
16665;SDS011;8446;50.998;6.250;2023-04-25T02:28:23;15.77;;;4.05;;
16665;SDS011;8446;50.998;6.250;2023-04-25T02:30:52;12.65;;;4.70;;
16665;SDS011;8446;50.998;6.250;2023-04-25T02:33:19;21.98;;;6.78;;
16665;SDS011;8446;50.998;6.250;2023-04-25T02:35:46;11.13;;;4.68;;
16665;SDS011;8446;50.998;6.250;2023-04-25T02:38:13;10.63;;;4.35;;
16665;SDS011;8446;50.998;6.250;2023-04-25T02:40:39;10.80;;;5.10;;
16665;SDS011;8446;50.998;6.250;2023-04-25T02:43:06;20.55;;;5.85;;
16665;SDS011;8446;50.998;6.250;2023-04-25T02:45:33;17.27;;;4.85;;
16665;SDS011;8446;50.998;6.250;2023-04-25T02:48:02;14.18;;;5.40;;
16665;SDS011;8446;50.998;6.250;2023-04-25T02:50:29;15.32;;;5.28;;
16665;SDS011;8446;50.998;6.250;2023-04-25T02:52:56;10.65;;;4.93;;
16665;SDS011;8446;50.998;6.250;2023-04-25T02:55:23;15.77;;;5.68;;
16665;SDS011;8446;50.998;6.250;2023-04-25T02:57:49;14.23;;;5.00;;
16665;SDS011;8446;50.998;6.250;2023-04-25T03:00:16;14.70;;;5.22;;
16665;SDS011;8446;50.998;6.250;2023-04-25T03:02:43;6.80;;;3.85;;
16665;SDS011;8446;50.998;6.250;2023-04-25T03:05:11;23.27;;;5.50;;
16665;SDS011;8446;50.998;6.250;2023-04-25T03:07:38;13.52;;;4.88;;
16665;SDS011;8446;50.998;6.250;2023-04-25T03:10:05;15.82;;;4.30;;
16665;SDS011;8446;50.998;6.250;2023-04-25T03:12:33;9.95;;;4.85;;
16665;SDS011;8446;50.998;6.250;2023-04-25T03:15:00;9.57;;;5.00;;
16665;SDS011;8446;50.998;6.250;2023-04-25T03:17:27;12.43;;;5.50;;
16665;SDS011;8446;50.998;6.250;2023-04-25T03:19:53;7.38;;;4.93;;
16665;SDS011;8446;50.998;6.250;2023-04-25T03:22:22;16.15;;;5.53;;
16665;SDS011;8446;50.998;6.250;2023-04-25T03:24:49;11.82;;;5.63;;
16665;SDS011;8446;50.998;6.250;2023-04-25T03:27:16;15.95;;;5.28;;
16665;SDS011;8446;50.998;6.250;2023-04-25T03:29:43;8.98;;;3.95;;
16665;SDS011;8446;50.998;6.250;2023-04-25T03:32:10;16.33;;;5.40;;
16665;SDS011;8446;50.998;6.250;2023-04-25T03:34:37;10.75;;;4.35;;
16665;SDS011;8446;50.998;6.250;2023-04-25T03:37:03;11.40;;;4.72;;
16665;SDS011;8446;50.998;6.250;2023-04-25T03:39:31;13.68;;;4.95;;
16665;SDS011;8446;50.998;6.250;2023-04-25T03:41:58;11.27;;;4.72;;
16665;SDS011;8446;50.998;6.250;2023-04-25T03:44:26;7.85;;;4.28;;
16665;SDS011;8446;50.998;6.250;2023-04-25T03:46:52;11.13;;;4.57;;
16665;SDS011;8446;50.998;6.250;2023-04-25T03:49:19;14.05;;;4.43;;
16665;SDS011;8446;50.998;6.250;2023-04-25T03:51:46;11.48;;;4.20;;
16665;SDS011;8446;50.998;6.250;2023-04-25T03:54:13;22.95;;;5.50;;
16665;SDS011;8446;50.998;6.250;2023-04-25T03:56:41;15.15;;;5.80;;
16665;SDS011;8446;50.998;6.250;2023-04-25T03:59:08;17.77;;;4.78;;
16665;SDS011;8446;50.998;6.250;2023-04-25T04:01:34;6.72;;;3.58;;
16665;SDS011;8446;50.998;6.250;2023-04-25T04:04:01;10.02;;;4.95;;
16665;SDS011;8446;50.998;6.250;2023-04-25T04:06:28;14.65;;;5.57;;
16665;SDS011;8446;50.998;6.250;2023-04-25T04:08:55;18.50;;;4.78;;
16665;SDS011;8446;50.998;6.250;2023-04-25T04:11:22;15.93;;;5.20;;
16665;SDS011;8446;50.998;6.250;2023-04-25T04:13:50;10.32;;;4.72;;
16665;SDS011;8446;50.998;6.250;2023-04-25T04:16:17;26.58;;;5.60;;
16665;SDS011;8446;50.998;6.250;2023-04-25T04:18:44;9.70;;;4.85;;
16665;SDS011;8446;50.998;6.250;2023-04-25T04:21:11;12.73;;;3.63;;
16665;SDS011;8446;50.998;6.250;2023-04-25T04:23:38;14.45;;;4.53;;
16665;SDS011;8446;50.998;6.250;2023-04-25T04:26:05;13.63;;;4.35;;
16665;SDS011;8446;50.998;6.250;2023-04-25T04:28:33;16.27;;;5.00;;
16665;SDS011;8446;50.998;6.250;2023-04-25T04:31:02;12.18;;;4.10;;
16665;SDS011;8446;50.998;6.250;2023-04-25T04:33:29;9.63;;;3.92;;
16665;SDS011;8446;50.998;6.250;2023-04-25T04:35:56;10.68;;;5.07;;
16665;SDS011;8446;50.998;6.250;2023-04-25T04:38:24;8.02;;;3.55;;
16665;SDS011;8446;50.998;6.250;2023-04-25T04:40:51;14.05;;;4.55;;
16665;SDS011;8446;50.998;6.250;2023-04-25T04:43:18;12.27;;;4.50;;
16665;SDS011;8446;50.998;6.250;2023-04-25T04:45:45;23.33;;;5.40;;
16665;SDS011;8446;50.998;6.250;2023-04-25T04:48:14;11.90;;;4.30;;
16665;SDS011;8446;50.998;6.250;2023-04-25T04:50:42;8.68;;;3.90;;
16665;SDS011;8446;50.998;6.250;2023-04-25T04:53:10;15.13;;;4.40;;
16665;SDS011;8446;50.998;6.250;2023-04-25T04:55:37;12.65;;;4.70;;
16665;SDS011;8446;50.998;6.250;2023-04-25T04:58:03;14.88;;;5.05;;
16665;SDS011;8446;50.998;6.250;2023-04-25T05:00:30;17.60;;;4.57;;
16665;SDS011;8446;50.998;6.250;2023-04-25T05:02:58;14.60;;;4.10;;
16665;SDS011;8446;50.998;6.250;2023-04-25T05:05:26;12.02;;;4.45;;
16665;SDS011;8446;50.998;6.250;2023-04-25T05:07:53;23.02;;;6.93;;
16665;SDS011;8446;50.998;6.250;2023-04-25T05:10:19;9.40;;;3.97;;
16665;SDS011;8446;50.998;6.250;2023-04-25T05:12:46;20.15;;;5.38;;
16665;SDS011;8446;50.998;6.250;2023-04-25T05:15:13;13.25;;;4.40;;
16665;SDS011;8446;50.998;6.250;2023-04-25T05:17:40;12.10;;;4.35;;
16665;SDS011;8446;50.998;6.250;2023-04-25T05:20:07;11.55;;;4.57;;
16665;SDS011;8446;50.998;6.250;2023-04-25T05:22:36;23.50;;;4.65;;
16665;SDS011;8446;50.998;6.250;2023-04-25T05:25:03;10.75;;;4.18;;
16665;SDS011;8446;50.998;6.250;2023-04-25T05:27:30;15.68;;;4.38;;
16665;SDS011;8446;50.998;6.250;2023-04-25T05:29:57;10.38;;;4.20;;
16665;SDS011;8446;50.998;6.250;2023-04-25T05:32:24;11.85;;;4.28;;
16665;SDS011;8446;50.998;6.250;2023-04-25T05:34:52;12.07;;;4.80;;
16665;SDS011;8446;50.998;6.250;2023-04-25T05:37:19;21.83;;;5.20;;
16665;SDS011;8446;50.998;6.250;2023-04-25T05:39:47;7.38;;;4.40;;
16665;SDS011;8446;50.998;6.250;2023-04-25T05:42:13;15.45;;;5.22;;
16665;SDS011;8446;50.998;6.250;2023-04-25T05:44:40;17.52;;;5.55;;
16665;SDS011;8446;50.998;6.250;2023-04-25T05:47:07;11.50;;;5.18;;
16665;SDS011;8446;50.998;6.250;2023-04-25T05:49:34;12.73;;;4.82;;
16665;SDS011;8446;50.998;6.250;2023-04-25T05:52:01;17.33;;;5.20;;
16665;SDS011;8446;50.998;6.250;2023-04-25T05:54:28;18.70;;;5.15;;
16665;SDS011;8446;50.998;6.250;2023-04-25T05:56:57;12.18;;;4.88;;
16665;SDS011;8446;50.998;6.250;2023-04-25T05:59:23;21.33;;;5.60;;
16665;SDS011;8446;50.998;6.250;2023-04-25T06:01:50;17.45;;;5.50;;
16665;SDS011;8446;50.998;6.250;2023-04-25T06:04:17;18.20;;;4.65;;
16665;SDS011;8446;50.998;6.250;2023-04-25T06:06:44;12.15;;;4.63;;
16665;SDS011;8446;50.998;6.250;2023-04-25T06:09:11;8.02;;;3.83;;
16665;SDS011;8446;50.998;6.250;2023-04-25T06:11:40;11.30;;;4.47;;
16665;SDS011;8446;50.998;6.250;2023-04-25T06:14:08;12.27;;;3.60;;
16665;SDS011;8446;50.998;6.250;2023-04-25T06:16:35;14.98;;;4.65;;
16665;SDS011;8446;50.998;6.250;2023-04-25T06:19:02;11.43;;;3.70;;
16665;SDS011;8446;50.998;6.250;2023-04-25T06:21:29;12.93;;;4.00;;
16665;SDS011;8446;50.998;6.250;2023-04-25T06:23:56;12.20;;;3.65;;
16665;SDS011;8446;50.998;6.250;2023-04-25T06:26:23;11.00;;;4.28;;
16665;SDS011;8446;50.998;6.250;2023-04-25T06:28:50;15.57;;;3.90;;
16665;SDS011;8446;50.998;6.250;2023-04-25T06:31:18;18.48;;;3.72;;
16665;SDS011;8446;50.998;6.250;2023-04-25T06:33:45;15.20;;;3.60;;
16665;SDS011;8446;50.998;6.250;2023-04-25T06:36:13;6.63;;;3.20;;
16665;SDS011;8446;50.998;6.250;2023-04-25T06:38:40;15.20;;;3.92;;
16665;SDS011;8446;50.998;6.250;2023-04-25T06:41:06;13.77;;;3.33;;
16665;SDS011;8446;50.998;6.250;2023-04-25T06:43:33;22.15;;;4.50;;
16665;SDS011;8446;50.998;6.250;2023-04-25T06:46:00;11.20;;;4.53;;
16665;SDS011;8446;50.998;6.250;2023-04-25T06:48:28;17.90;;;3.60;;
16665;SDS011;8446;50.998;6.250;2023-04-25T06:50:55;9.90;;;3.27;;
16665;SDS011;8446;50.998;6.250;2023-04-25T06:53:22;24.17;;;4.10;;
16665;SDS011;8446;50.998;6.250;2023-04-25T06:55:49;12.70;;;3.90;;
16665;SDS011;8446;50.998;6.250;2023-04-25T06:58:16;12.23;;;3.40;;
16665;SDS011;8446;50.998;6.250;2023-04-25T07:00:42;13.87;;;4.13;;
16665;SDS011;8446;50.998;6.250;2023-04-25T07:03:09;10.33;;;3.70;;
16665;SDS011;8446;50.998;6.250;2023-04-25T07:05:38;20.20;;;3.93;;
16665;SDS011;8446;50.998;6.250;2023-04-25T07:08:05;15.10;;;4.30;;
16665;SDS011;8446;50.998;6.250;2023-04-25T07:10:31;13.90;;;4.17;;
16665;SDS011;8446;50.998;6.250;2023-04-25T07:12:58;10.33;;;3.87;;
16665;SDS011;8446;50.998;6.250;2023-04-25T07:15:25;12.23;;;3.53;;
16665;SDS011;8446;50.998;6.250;2023-04-25T07:17:52;14.07;;;3.70;;
16665;SDS011;8446;50.998;6.250;2023-04-25T07:20:18;21.70;;;4.97;;
16665;SDS011;8446;50.998;6.250;2023-04-25T07:22:47;9.00;;;3.63;;
16665;SDS011;8446;50.998;6.250;2023-04-25T07:25:15;15.07;;;3.53;;
16665;SDS011;8446;50.998;6.250;2023-04-25T07:27:42;27.20;;;3.90;;
16665;SDS011;8446;50.998;6.250;2023-04-25T07:30:09;7.23;;;2.83;;
16665;SDS011;8446;50.998;6.250;2023-04-25T07:32:37;9.03;;;3.30;;
16665;SDS011;8446;50.998;6.250;2023-04-25T07:35:04;14.40;;;3.23;;
16665;SDS011;8446;50.998;6.250;2023-04-25T07:37:33;13.93;;;3.70;;
16665;SDS011;8446;50.998;6.250;2023-04-25T07:40:01;13.13;;;3.97;;
16665;SDS011;8446;50.998;6.250;2023-04-25T07:42:29;10.63;;;3.17;;
16665;SDS011;8446;50.998;6.250;2023-04-25T07:44:56;8.10;;;2.90;;
16665;SDS011;8446;50.998;6.250;2023-04-25T07:47:23;10.93;;;2.80;;
16665;SDS011;8446;50.998;6.250;2023-04-25T07:49:49;8.40;;;3.03;;
16665;SDS011;8446;50.998;6.250;2023-04-25T07:52:16;11.80;;;2.60;;
16665;SDS011;8446;50.998;6.250;2023-04-25T07:54:43;8.97;;;2.40;;
16665;SDS011;8446;50.998;6.250;2023-04-25T07:57:11;4.20;;;2.57;;
16665;SDS011;8446;50.998;6.250;2023-04-25T07:59:39;7.07;;;2.57;;
16665;SDS011;8446;50.998;6.250;2023-04-25T08:02:05;9.50;;;3.03;;
16665;SDS011;8446;50.998;6.250;2023-04-25T08:04:32;8.03;;;2.60;;
16665;SDS011;8446;50.998;6.250;2023-04-25T08:06:59;12.93;;;2.50;;
16665;SDS011;8446;50.998;6.250;2023-04-25T08:09:26;14.93;;;2.90;;
16665;SDS011;8446;50.998;6.250;2023-04-25T08:11:54;10.07;;;2.40;;
16665;SDS011;8446;50.998;6.250;2023-04-25T08:14:22;5.13;;;2.33;;
16665;SDS011;8446;50.998;6.250;2023-04-25T08:16:49;10.90;;;2.53;;
16665;SDS011;8446;50.998;6.250;2023-04-25T08:19:16;7.93;;;2.20;;
16665;SDS011;8446;50.998;6.250;2023-04-25T08:21:42;6.77;;;2.10;;
16665;SDS011;8446;50.998;6.250;2023-04-25T08:24:09;12.13;;;2.40;;
16665;SDS011;8446;50.998;6.250;2023-04-25T08:26:36;9.07;;;2.73;;
16665;SDS011;8446;50.998;6.250;2023-04-25T08:29:04;10.97;;;2.87;;
16665;SDS011;8446;50.998;6.250;2023-04-25T08:31:32;19.30;;;2.73;;
16665;SDS011;8446;50.998;6.250;2023-04-25T08:33:59;8.33;;;3.33;;
16665;SDS011;8446;50.998;6.250;2023-04-25T08:36:26;5.80;;;2.40;;
16665;SDS011;8446;50.998;6.250;2023-04-25T08:38:53;7.60;;;2.03;;
16665;SDS011;8446;50.998;6.250;2023-04-25T08:41:21;8.03;;;2.27;;
16665;SDS011;8446;50.998;6.250;2023-04-25T08:43:48;9.37;;;2.03;;
16665;SDS011;8446;50.998;6.250;2023-04-25T08:46:17;8.83;;;2.50;;
16665;SDS011;8446;50.998;6.250;2023-04-25T08:48:46;8.77;;;2.50;;
16665;SDS011;8446;50.998;6.250;2023-04-25T08:51:15;8.93;;;4.57;;
16665;SDS011;8446;50.998;6.250;2023-04-25T08:53:47;10.63;;;2.83;;
16665;SDS011;8446;50.998;6.250;2023-04-25T08:56:17;9.40;;;2.63;;
16665;SDS011;8446;50.998;6.250;2023-04-25T08:58:47;8.07;;;2.97;;
16665;SDS011;8446;50.998;6.250;2023-04-25T09:01:14;4.80;;;2.70;;
16665;SDS011;8446;50.998;6.250;2023-04-25T09:03:41;7.70;;;2.50;;
16665;SDS011;8446;50.998;6.250;2023-04-25T09:06:11;7.53;;;2.13;;
16665;SDS011;8446;50.998;6.250;2023-04-25T09:08:37;11.20;;;2.40;;
16665;SDS011;8446;50.998;6.250;2023-04-25T09:11:05;7.43;;;2.70;;
16665;SDS011;8446;50.998;6.250;2023-04-25T09:13:33;4.40;;;2.50;;
16665;SDS011;8446;50.998;6.250;2023-04-25T09:16:00;7.37;;;2.77;;
16665;SDS011;8446;50.998;6.250;2023-04-25T09:18:27;9.50;;;2.33;;
16665;SDS011;8446;50.998;6.250;2023-04-25T09:20:56;10.43;;;2.23;;
16665;SDS011;8446;50.998;6.250;2023-04-25T09:23:25;10.43;;;3.03;;
16665;SDS011;8446;50.998;6.250;2023-04-25T09:25:52;10.27;;;2.97;;
16665;SDS011;8446;50.998;6.250;2023-04-25T09:28:22;5.40;;;2.30;;
16665;SDS011;8446;50.998;6.250;2023-04-25T09:30:54;8.63;;;2.23;;
16665;SDS011;8446;50.998;6.250;2023-04-25T09:33:26;7.50;;;2.40;;
16665;SDS011;8446;50.998;6.250;2023-04-25T09:35:56;7.03;;;1.90;;
16665;SDS011;8446;50.998;6.250;2023-04-25T09:38:30;8.20;;;2.33;;
16665;SDS011;8446;50.998;6.250;2023-04-25T09:40:58;3.80;;;1.83;;
16665;SDS011;8446;50.998;6.250;2023-04-25T09:43:26;7.27;;;2.50;;
16665;SDS011;8446;50.998;6.250;2023-04-25T09:45:53;8.33;;;2.13;;
16665;SDS011;8446;50.998;6.250;2023-04-25T09:48:23;6.77;;;1.87;;
16665;SDS011;8446;50.998;6.250;2023-04-25T09:51:03;10.83;;;2.90;;
16665;SDS011;8446;50.998;6.250;2023-04-25T09:53:35;9.60;;;2.47;;
16665;SDS011;8446;50.998;6.250;2023-04-25T09:56:03;12.53;;;3.10;;
16665;SDS011;8446;50.998;6.250;2023-04-25T09:58:31;2.77;;;1.97;;
16665;SDS011;8446;50.998;6.250;2023-04-25T10:01:00;8.97;;;1.90;;
16665;SDS011;8446;50.998;6.250;2023-04-25T10:03:29;8.37;;;2.87;;
16665;SDS011;8446;50.998;6.250;2023-04-25T10:05:57;3.73;;;2.30;;
16665;SDS011;8446;50.998;6.250;2023-04-25T10:08:26;10.70;;;3.13;;
16665;SDS011;8446;50.998;6.250;2023-04-25T10:10:59;8.93;;;2.20;;
16665;SDS011;8446;50.998;6.250;2023-04-25T10:13:28;3.50;;;1.80;;
16665;SDS011;8446;50.998;6.250;2023-04-25T10:15:56;7.80;;;2.23;;
16665;SDS011;8446;50.998;6.250;2023-04-25T10:18:24;6.23;;;2.47;;
16665;SDS011;8446;50.998;6.250;2023-04-25T10:20:51;8.33;;;2.07;;
16665;SDS011;8446;50.998;6.250;2023-04-25T10:23:20;10.83;;;2.50;;
16665;SDS011;8446;50.998;6.250;2023-04-25T10:25:47;7.77;;;2.00;;
16665;SDS011;8446;50.998;6.250;2023-04-25T10:28:15;11.00;;;2.20;;
16665;SDS011;8446;50.998;6.250;2023-04-25T10:30:56;11.87;;;2.80;;
16665;SDS011;8446;50.998;6.250;2023-04-25T10:33:29;5.27;;;2.33;;
16665;SDS011;8446;50.998;6.250;2023-04-25T10:36:02;8.73;;;2.60;;
16665;SDS011;8446;50.998;6.250;2023-04-25T10:38:35;5.80;;;2.23;;
16665;SDS011;8446;50.998;6.250;2023-04-25T10:41:03;6.17;;;2.33;;
16665;SDS011;8446;50.998;6.250;2023-04-25T10:43:35;12.00;;;2.67;;
16665;SDS011;8446;50.998;6.250;2023-04-25T10:46:12;8.63;;;2.27;;
16665;SDS011;8446;50.998;6.250;2023-04-25T10:48:49;13.60;;;2.60;;
16665;SDS011;8446;50.998;6.250;2023-04-25T10:51:18;5.57;;;2.13;;
16665;SDS011;8446;50.998;6.250;2023-04-25T10:53:46;6.57;;;2.20;;
16665;SDS011;8446;50.998;6.250;2023-04-25T10:58:50;6.07;;;1.73;;
16665;SDS011;8446;50.998;6.250;2023-04-25T11:01:19;6.70;;;2.07;;
16665;SDS011;8446;50.998;6.250;2023-04-25T11:03:47;8.53;;;2.07;;
16665;SDS011;8446;50.998;6.250;2023-04-25T11:06:20;6.88;;;2.22;;
16665;SDS011;8446;50.998;6.250;2023-04-25T11:08:56;5.40;;;1.87;;
16665;SDS011;8446;50.998;6.250;2023-04-25T11:11:26;7.03;;;1.90;;
16665;SDS011;8446;50.998;6.250;2023-04-25T11:13:56;12.82;;;2.10;;
16665;SDS011;8446;50.998;6.250;2023-04-25T11:16:23;2.53;;;1.50;;
16665;SDS011;8446;50.998;6.250;2023-04-25T11:18:50;5.37;;;1.90;;
16665;SDS011;8446;50.998;6.250;2023-04-25T11:21:17;9.17;;;2.40;;
16665;SDS011;8446;50.998;6.250;2023-04-25T11:23:44;3.10;;;1.70;;
16665;SDS011;8446;50.998;6.250;2023-04-25T11:26:12;4.70;;;1.97;;
16665;SDS011;8446;50.998;6.250;2023-04-25T11:28:40;4.47;;;1.97;;
16665;SDS011;8446;50.998;6.250;2023-04-25T11:31:08;3.70;;;1.50;;
16665;SDS011;8446;50.998;6.250;2023-04-25T11:33:36;11.10;;;1.90;;
16665;SDS011;8446;50.998;6.250;2023-04-25T11:36:03;4.23;;;1.90;;
16665;SDS011;8446;50.998;6.250;2023-04-25T11:38:39;1.90;;;1.40;;
16665;SDS011;8446;50.998;6.250;2023-04-25T11:41:07;4.90;;;1.73;;
16665;SDS011;8446;50.998;6.250;2023-04-25T11:43:33;4.03;;;1.70;;
16665;SDS011;8446;50.998;6.250;2023-04-25T11:46:00;6.93;;;1.80;;
16665;SDS011;8446;50.998;6.250;2023-04-25T11:48:29;10.23;;;2.00;;
16665;SDS011;8446;50.998;6.250;2023-04-25T11:51:03;6.73;;;1.90;;
16665;SDS011;8446;50.998;6.250;2023-04-25T11:53:31;3.93;;;1.63;;
16665;SDS011;8446;50.998;6.250;2023-04-25T11:55:58;6.97;;;2.10;;
16665;SDS011;8446;50.998;6.250;2023-04-25T11:58:28;3.60;;;1.80;;
16665;SDS011;8446;50.998;6.250;2023-04-25T12:00:55;4.07;;;1.60;;
16665;SDS011;8446;50.998;6.250;2023-04-25T12:03:24;2.30;;;1.47;;
16665;SDS011;8446;50.998;6.250;2023-04-25T12:06:03;4.90;;;1.80;;
16665;SDS011;8446;50.998;6.250;2023-04-25T12:08:30;8.87;;;2.20;;
16665;SDS011;8446;50.998;6.250;2023-04-25T12:10:57;8.87;;;1.80;;
16665;SDS011;8446;50.998;6.250;2023-04-25T12:13:24;3.83;;;1.40;;
16665;SDS011;8446;50.998;6.250;2023-04-25T12:15:53;4.33;;;2.03;;
16665;SDS011;8446;50.998;6.250;2023-04-25T12:18:22;6.17;;;1.63;;
16665;SDS011;8446;50.998;6.250;2023-04-25T12:20:52;5.13;;;1.50;;
16665;SDS011;8446;50.998;6.250;2023-04-25T12:23:26;3.37;;;1.47;;
16665;SDS011;8446;50.998;6.250;2023-04-25T12:25:56;3.73;;;1.80;;
16665;SDS011;8446;50.998;6.250;2023-04-25T12:28:26;4.90;;;1.73;;
16665;SDS011;8446;50.998;6.250;2023-04-25T12:30:53;6.47;;;1.67;;
16665;SDS011;8446;50.998;6.250;2023-04-25T12:33:21;4.23;;;1.70;;
16665;SDS011;8446;50.998;6.250;2023-04-25T12:35:48;7.10;;;2.47;;
16665;SDS011;8446;50.998;6.250;2023-04-25T12:38:20;5.00;;;1.90;;
16665;SDS011;8446;50.998;6.250;2023-04-25T12:40:49;6.20;;;1.77;;
16665;SDS011;8446;50.998;6.250;2023-04-25T12:43:15;8.30;;;2.00;;
16665;SDS011;8446;50.998;6.250;2023-04-25T12:45:42;4.27;;;1.97;;
16665;SDS011;8446;50.998;6.250;2023-04-25T12:48:09;4.17;;;1.93;;
16665;SDS011;8446;50.998;6.250;2023-04-25T12:50:36;7.20;;;2.50;;
16665;SDS011;8446;50.998;6.250;2023-04-25T12:53:03;8.63;;;1.90;;
16665;SDS011;8446;50.998;6.250;2023-04-25T12:55:30;5.70;;;2.03;;
16665;SDS011;8446;50.998;6.250;2023-04-25T12:57:58;8.80;;;1.87;;
16665;SDS011;8446;50.998;6.250;2023-04-25T13:00:25;6.80;;;1.80;;
16665;SDS011;8446;50.998;6.250;2023-04-25T13:02:58;6.40;;;1.70;;
16665;SDS011;8446;50.998;6.250;2023-04-25T13:05:25;7.20;;;2.57;;
16665;SDS011;8446;50.998;6.250;2023-04-25T13:07:52;4.13;;;1.83;;
16665;SDS011;8446;50.998;6.250;2023-04-25T13:10:19;7.20;;;2.20;;
16665;SDS011;8446;50.998;6.250;2023-04-25T13:12:46;10.23;;;2.00;;
16665;SDS011;8446;50.998;6.250;2023-04-25T13:15:14;3.03;;;1.93;;
16665;SDS011;8446;50.998;6.250;2023-04-25T13:17:42;7.37;;;1.73;;
16665;SDS011;8446;50.998;6.250;2023-04-25T13:20:09;6.60;;;1.90;;
16665;SDS011;8446;50.998;6.250;2023-04-25T13:22:37;3.43;;;1.73;;
16665;SDS011;8446;50.998;6.250;2023-04-25T13:25:04;3.70;;;1.50;;
16665;SDS011;8446;50.998;6.250;2023-04-25T13:27:32;6.90;;;1.70;;
16665;SDS011;8446;50.998;6.250;2023-04-25T13:30:01;5.70;;;1.50;;
16665;SDS011;8446;50.998;6.250;2023-04-25T13:32:33;3.63;;;1.87;;
16665;SDS011;8446;50.998;6.250;2023-04-25T13:35:01;5.10;;;1.50;;
16665;SDS011;8446;50.998;6.250;2023-04-25T13:37:28;4.73;;;1.30;;
16665;SDS011;8446;50.998;6.250;2023-04-25T13:39:57;7.50;;;1.80;;
16665;SDS011;8446;50.998;6.250;2023-04-25T13:42:24;5.10;;;2.37;;
16665;SDS011;8446;50.998;6.250;2023-04-25T13:44:51;2.20;;;1.10;;
16665;SDS011;8446;50.998;6.250;2023-04-25T13:47:18;6.20;;;1.30;;
16665;SDS011;8446;50.998;6.250;2023-04-25T13:49:46;1.53;;;1.23;;
16665;SDS011;8446;50.998;6.250;2023-04-25T13:52:13;2.87;;;1.23;;
16665;SDS011;8446;50.998;6.250;2023-04-25T13:54:40;4.43;;;1.63;;
16665;SDS011;8446;50.998;6.250;2023-04-25T13:57:06;3.30;;;1.67;;
16665;SDS011;8446;50.998;6.250;2023-04-25T13:59:33;2.30;;;1.63;;
16665;SDS011;8446;50.998;6.250;2023-04-25T14:02:00;5.60;;;1.70;;
16665;SDS011;8446;50.998;6.250;2023-04-25T14:04:27;4.17;;;1.53;;
16665;SDS011;8446;50.998;6.250;2023-04-25T14:06:56;2.10;;;1.63;;
16665;SDS011;8446;50.998;6.250;2023-04-25T14:09:23;3.53;;;1.93;;
16665;SDS011;8446;50.998;6.250;2023-04-25T14:11:50;2.67;;;1.90;;
16665;SDS011;8446;50.998;6.250;2023-04-25T14:14:17;6.00;;;2.60;;
16665;SDS011;8446;50.998;6.250;2023-04-25T14:16:44;1.83;;;1.40;;
16665;SDS011;8446;50.998;6.250;2023-04-25T14:19:13;4.20;;;1.67;;
16665;SDS011;8446;50.998;6.250;2023-04-25T14:21:40;2.00;;;1.57;;
16665;SDS011;8446;50.998;6.250;2023-04-25T14:24:09;4.07;;;1.83;;
16665;SDS011;8446;50.998;6.250;2023-04-25T14:26:36;2.27;;;1.33;;
16665;SDS011;8446;50.998;6.250;2023-04-25T14:29:03;2.40;;;1.70;;
16665;SDS011;8446;50.998;6.250;2023-04-25T14:31:31;2.60;;;1.40;;
16665;SDS011;8446;50.998;6.250;2023-04-25T14:33:58;3.50;;;1.30;;
16665;SDS011;8446;50.998;6.250;2023-04-25T14:36:25;8.53;;;1.67;;
16665;SDS011;8446;50.998;6.250;2023-04-25T14:38:54;2.30;;;1.30;;
16665;SDS011;8446;50.998;6.250;2023-04-25T14:41:22;3.53;;;1.60;;
16665;SDS011;8446;50.998;6.250;2023-04-25T14:43:49;3.43;;;1.43;;
16665;SDS011;8446;50.998;6.250;2023-04-25T14:46:17;4.27;;;1.43;;
16665;SDS011;8446;50.998;6.250;2023-04-25T14:48:45;3.37;;;1.50;;
16665;SDS011;8446;50.998;6.250;2023-04-25T14:51:12;1.60;;;1.17;;
16665;SDS011;8446;50.998;6.250;2023-04-25T14:53:39;6.53;;;1.50;;
16665;SDS011;8446;50.998;6.250;2023-04-25T14:56:06;4.33;;;1.30;;
16665;SDS011;8446;50.998;6.250;2023-04-25T14:58:35;1.43;;;1.23;;
16665;SDS011;8446;50.998;6.250;2023-04-25T15:01:02;1.43;;;1.33;;